sensor_id;sensor_type;location;lat;lon;timestamp;pressure;altitude;pressure_sealevel;temperature;humidity
12897;BME280;6516;35.028;32.372;2022-09-09T00:01:51;99779.91;;;22.82;77.43
12897;BME280;6516;35.028;32.372;2022-09-09T00:04:26;99782.00;;;22.89;77.05
12897;BME280;6516;35.028;32.372;2022-09-09T00:07:01;99787.25;;;23.03;77.64
12897;BME280;6516;35.028;32.372;2022-09-09T00:09:39;99788.59;;;23.09;77.18
12897;BME280;6516;35.028;32.372;2022-09-09T00:12:16;99784.81;;;23.11;77.36
12897;BME280;6516;35.028;32.372;2022-09-09T00:14:53;99783.50;;;23.17;77.44
12897;BME280;6516;35.028;32.372;2022-09-09T00:17:31;99781.06;;;23.14;77.59
12897;BME280;6516;35.028;32.372;2022-09-09T00:20:09;99778.72;;;23.09;77.79
12897;BME280;6516;35.028;32.372;2022-09-09T00:22:43;99778.94;;;23.06;77.87
12897;BME280;6516;35.028;32.372;2022-09-09T00:25:21;99779.41;;;23.00;78.00
12897;BME280;6516;35.028;32.372;2022-09-09T00:27:54;99779.00;;;22.94;78.34
12897;BME280;6516;35.028;32.372;2022-09-09T00:30:24;99778.38;;;22.90;78.86
12897;BME280;6516;35.028;32.372;2022-09-09T00:32:54;99782.66;;;22.93;79.16
12897;BME280;6516;35.028;32.372;2022-09-09T00:35:25;99779.09;;;22.92;79.13
12897;BME280;6516;35.028;32.372;2022-09-09T00:37:58;99776.22;;;22.95;79.01
12897;BME280;6516;35.028;32.372;2022-09-09T00:40:33;99776.34;;;23.05;79.24
12897;BME280;6516;35.028;32.372;2022-09-09T00:43:16;99768.19;;;23.06;79.26
12897;BME280;6516;35.028;32.372;2022-09-09T00:46:13;99777.41;;;23.15;79.41
12897;BME280;6516;35.028;32.372;2022-09-09T00:48:54;99771.59;;;23.21;78.99
12897;BME280;6516;35.028;32.372;2022-09-09T00:51:39;99775.88;;;23.23;78.70
12897;BME280;6516;35.028;32.372;2022-09-09T00:54:28;99772.34;;;23.23;78.57
12897;BME280;6516;35.028;32.372;2022-09-09T00:57:13;99775.03;;;23.23;78.97
12897;BME280;6516;35.028;32.372;2022-09-09T00:59:52;99767.84;;;23.23;79.08
12897;BME280;6516;35.028;32.372;2022-09-09T01:02:32;99772.59;;;23.20;79.07
12897;BME280;6516;35.028;32.372;2022-09-09T01:05:10;99774.59;;;23.16;79.35
12897;BME280;6516;35.028;32.372;2022-09-09T01:07:44;99775.06;;;23.10;79.21
12897;BME280;6516;35.028;32.372;2022-09-09T01:10:21;99770.88;;;23.06;79.74
12897;BME280;6516;35.028;32.372;2022-09-09T01:13:03;99767.56;;;23.03;79.77
12897;BME280;6516;35.028;32.372;2022-09-09T01:15:33;99766.72;;;23.02;80.55
12897;BME280;6516;35.028;32.372;2022-09-09T01:18:05;99763.81;;;23.05;79.78
12897;BME280;6516;35.028;32.372;2022-09-09T01:20:41;99770.03;;;23.06;79.68
12897;BME280;6516;35.028;32.372;2022-09-09T01:23:35;99768.88;;;22.97;79.59
12897;BME280;6516;35.028;32.372;2022-09-09T01:26:18;99764.09;;;22.90;80.31
12897;BME280;6516;35.028;32.372;2022-09-09T01:28:50;99774.94;;;22.88;80.56
12897;BME280;6516;35.028;32.372;2022-09-09T01:31:22;99778.09;;;22.82;81.13
12897;BME280;6516;35.028;32.372;2022-09-09T01:33:53;99774.00;;;22.77;81.37
12897;BME280;6516;35.028;32.372;2022-09-09T01:36:27;99775.97;;;22.75;81.11
12897;BME280;6516;35.028;32.372;2022-09-09T01:38:57;99783.34;;;22.71;80.96
12897;BME280;6516;35.028;32.372;2022-09-09T01:41:27;99785.22;;;22.71;81.61
12897;BME280;6516;35.028;32.372;2022-09-09T01:43:55;99783.59;;;22.68;81.45
12897;BME280;6516;35.028;32.372;2022-09-09T01:46:24;99779.53;;;22.63;81.74
12897;BME280;6516;35.028;32.372;2022-09-09T01:48:53;99776.75;;;22.64;81.75
12897;BME280;6516;35.028;32.372;2022-09-09T01:51:22;99784.28;;;22.59;82.03
12897;BME280;6516;35.028;32.372;2022-09-09T01:53:51;99774.63;;;22.57;82.02
12897;BME280;6516;35.028;32.372;2022-09-09T01:56:29;99781.06;;;22.54;81.54
12897;BME280;6516;35.028;32.372;2022-09-09T01:59:14;99781.28;;;22.51;82.58
12897;BME280;6516;35.028;32.372;2022-09-09T02:02:01;99775.69;;;22.54;82.43
12897;BME280;6516;35.028;32.372;2022-09-09T02:04:40;99774.19;;;22.50;81.82
12897;BME280;6516;35.028;32.372;2022-09-09T02:07:24;99771.94;;;22.44;81.87
12897;BME280;6516;35.028;32.372;2022-09-09T02:10:05;99770.66;;;22.37;82.14
12897;BME280;6516;35.028;32.372;2022-09-09T02:12:42;99773.78;;;22.31;82.65
12897;BME280;6516;35.028;32.372;2022-09-09T02:15:19;99775.81;;;22.28;83.12
12897;BME280;6516;35.028;32.372;2022-09-09T02:17:56;99781.31;;;22.26;82.97
12897;BME280;6516;35.028;32.372;2022-09-09T02:20:25;99772.19;;;22.29;83.61
12897;BME280;6516;35.028;32.372;2022-09-09T02:22:56;99778.38;;;22.29;83.30
12897;BME280;6516;35.028;32.372;2022-09-09T02:25:26;99776.47;;;22.31;82.18
12897;BME280;6516;35.028;32.372;2022-09-09T02:27:57;99780.41;;;22.38;80.91
12897;BME280;6516;35.028;32.372;2022-09-09T02:30:27;99779.22;;;22.42;80.23
12897;BME280;6516;35.028;32.372;2022-09-09T02:32:58;99782.25;;;22.50;79.99
12897;BME280;6516;35.028;32.372;2022-09-09T02:35:28;99783.50;;;22.57;78.72
12897;BME280;6516;35.028;32.372;2022-09-09T02:37:59;99784.06;;;22.62;78.21
12897;BME280;6516;35.028;32.372;2022-09-09T02:40:30;99790.25;;;22.63;78.79
12897;BME280;6516;35.028;32.372;2022-09-09T02:42:59;99788.66;;;22.60;78.74
12897;BME280;6516;35.028;32.372;2022-09-09T02:45:32;99785.97;;;22.60;78.61
12897;BME280;6516;35.028;32.372;2022-09-09T02:48:08;99783.50;;;22.57;78.43
12897;BME280;6516;35.028;32.372;2022-09-09T02:50:47;99790.72;;;22.57;78.48
12897;BME280;6516;35.028;32.372;2022-09-09T02:53:26;99791.13;;;22.63;78.25
12897;BME280;6516;35.028;32.372;2022-09-09T02:56:04;99789.94;;;22.67;78.00
12897;BME280;6516;35.028;32.372;2022-09-09T02:58:36;99798.63;;;22.71;78.18
12897;BME280;6516;35.028;32.372;2022-09-09T03:01:05;99792.19;;;22.73;78.17
12897;BME280;6516;35.028;32.372;2022-09-09T03:03:34;99792.81;;;22.77;78.65
12897;BME280;6516;35.028;32.372;2022-09-09T03:06:02;99785.84;;;22.74;79.17
12897;BME280;6516;35.028;32.372;2022-09-09T03:08:31;99789.72;;;22.70;78.90
12897;BME280;6516;35.028;32.372;2022-09-09T03:10:59;99788.09;;;22.68;79.84
12897;BME280;6516;35.028;32.372;2022-09-09T03:13:28;99792.63;;;22.67;80.15
12897;BME280;6516;35.028;32.372;2022-09-09T03:15:57;99797.03;;;22.68;80.54
12897;BME280;6516;35.028;32.372;2022-09-09T03:18:25;99796.25;;;22.66;81.25
12897;BME280;6516;35.028;32.372;2022-09-09T03:20:53;99791.88;;;22.65;81.09
12897;BME280;6516;35.028;32.372;2022-09-09T03:23:21;99798.22;;;22.64;80.99
12897;BME280;6516;35.028;32.372;2022-09-09T03:25:50;99793.06;;;22.61;81.47
12897;BME280;6516;35.028;32.372;2022-09-09T03:28:18;99793.31;;;22.58;81.96
12897;BME280;6516;35.028;32.372;2022-09-09T03:30:46;99793.50;;;22.55;82.18
12897;BME280;6516;35.028;32.372;2022-09-09T03:33:15;99797.28;;;22.53;82.41
12897;BME280;6516;35.028;32.372;2022-09-09T03:35:45;99798.97;;;22.54;83.02
12897;BME280;6516;35.028;32.372;2022-09-09T03:38:14;99800.81;;;22.53;82.57
12897;BME280;6516;35.028;32.372;2022-09-09T03:40:49;99801.66;;;22.54;82.79
12897;BME280;6516;35.028;32.372;2022-09-09T03:43:21;99798.44;;;22.61;82.52
12897;BME280;6516;35.028;32.372;2022-09-09T03:45:49;99799.41;;;22.60;82.67
12897;BME280;6516;35.028;32.372;2022-09-09T03:48:19;99799.50;;;22.59;82.75
12897;BME280;6516;35.028;32.372;2022-09-09T03:50:46;99805.75;;;22.59;83.16
12897;BME280;6516;35.028;32.372;2022-09-09T03:53:16;99803.69;;;22.63;83.09
12897;BME280;6516;35.028;32.372;2022-09-09T03:55:45;99806.16;;;22.66;82.67
12897;BME280;6516;35.028;32.372;2022-09-09T03:58:14;99799.72;;;22.68;82.73
12897;BME280;6516;35.028;32.372;2022-09-09T04:00:53;99817.06;;;22.75;82.55
12897;BME280;6516;35.028;32.372;2022-09-09T04:03:28;99819.22;;;22.83;82.40
12897;BME280;6516;35.028;32.372;2022-09-09T04:05:59;99809.72;;;22.90;82.36
12897;BME280;6516;35.028;32.372;2022-09-09T04:08:29;99816.78;;;23.03;81.92
12897;BME280;6516;35.028;32.372;2022-09-09T04:10:57;99824.16;;;23.12;81.01
12897;BME280;6516;35.028;32.372;2022-09-09T04:13:26;99820.84;;;23.21;80.98
12897;BME280;6516;35.028;32.372;2022-09-09T04:15:56;99818.91;;;23.34;80.28
12897;BME280;6516;35.028;32.372;2022-09-09T04:18:26;99826.78;;;23.48;80.38
12897;BME280;6516;35.028;32.372;2022-09-09T04:20:55;99826.63;;;23.62;79.73
12897;BME280;6516;35.028;32.372;2022-09-09T04:23:24;99827.91;;;23.80;78.51
12897;BME280;6516;35.028;32.372;2022-09-09T04:25:54;99826.00;;;23.93;78.05
12897;BME280;6516;35.028;32.372;2022-09-09T04:28:23;99831.19;;;24.07;77.05
12897;BME280;6516;35.028;32.372;2022-09-09T04:30:52;99831.81;;;24.22;77.02
12897;BME280;6516;35.028;32.372;2022-09-09T04:33:20;99827.06;;;24.36;75.72
12897;BME280;6516;35.028;32.372;2022-09-09T04:35:50;99824.13;;;24.50;75.74
12897;BME280;6516;35.028;32.372;2022-09-09T04:38:19;99829.78;;;24.69;75.33
12897;BME280;6516;35.028;32.372;2022-09-09T04:40:49;99837.47;;;24.85;74.89
12897;BME280;6516;35.028;32.372;2022-09-09T04:43:20;99825.56;;;25.09;74.78
12897;BME280;6516;35.028;32.372;2022-09-09T04:45:49;99827.56;;;25.39;73.95
12897;BME280;6516;35.028;32.372;2022-09-09T04:48:18;99823.16;;;25.69;73.37
12897;BME280;6516;35.028;32.372;2022-09-09T04:50:56;99818.88;;;25.98;72.92
12897;BME280;6516;35.028;32.372;2022-09-09T04:53:24;99816.88;;;26.21;72.70
12897;BME280;6516;35.028;32.372;2022-09-09T04:56:01;99820.97;;;26.45;72.07
12897;BME280;6516;35.028;32.372;2022-09-09T04:58:30;99813.59;;;26.68;71.32
12897;BME280;6516;35.028;32.372;2022-09-09T05:01:04;99819.63;;;26.90;69.92
12897;BME280;6516;35.028;32.372;2022-09-09T05:03:33;99818.59;;;27.22;69.52
12897;BME280;6516;35.028;32.372;2022-09-09T05:06:10;99813.03;;;27.52;67.49
12897;BME280;6516;35.028;32.372;2022-09-09T05:08:39;99813.06;;;27.71;67.90
12897;BME280;6516;35.028;32.372;2022-09-09T05:11:14;99816.19;;;27.95;67.43
12897;BME280;6516;35.028;32.372;2022-09-09T05:13:43;99810.06;;;28.12;66.15
12897;BME280;6516;35.028;32.372;2022-09-09T05:16:11;99818.38;;;28.37;66.19
12897;BME280;6516;35.028;32.372;2022-09-09T05:18:39;99814.34;;;28.60;63.38
12897;BME280;6516;35.028;32.372;2022-09-09T05:21:10;99814.09;;;28.81;63.83
12897;BME280;6516;35.028;32.372;2022-09-09T05:23:38;99812.81;;;29.12;61.31
12897;BME280;6516;35.028;32.372;2022-09-09T05:26:07;99815.78;;;29.36;61.12
12897;BME280;6516;35.028;32.372;2022-09-09T05:28:36;99813.25;;;29.52;59.84
12897;BME280;6516;35.028;32.372;2022-09-09T05:31:06;99816.50;;;29.73;59.57
12897;BME280;6516;35.028;32.372;2022-09-09T05:33:35;99815.94;;;29.87;58.33
12897;BME280;6516;35.028;32.372;2022-09-09T05:36:05;99818.00;;;30.10;58.31
12897;BME280;6516;35.028;32.372;2022-09-09T05:38:35;99818.41;;;30.15;52.79
12897;BME280;6516;35.028;32.372;2022-09-09T05:41:03;99819.53;;;30.30;53.78
12897;BME280;6516;35.028;32.372;2022-09-09T05:43:31;99822.53;;;30.45;54.48
12897;BME280;6516;35.028;32.372;2022-09-09T05:46:02;99821.09;;;30.58;51.94
12897;BME280;6516;35.028;32.372;2022-09-09T05:48:33;99817.13;;;30.78;50.46
12897;BME280;6516;35.028;32.372;2022-09-09T05:51:04;99815.84;;;30.98;50.41
12897;BME280;6516;35.028;32.372;2022-09-09T05:53:32;99817.44;;;31.17;47.16
12897;BME280;6516;35.028;32.372;2022-09-09T05:56:03;99813.25;;;31.30;48.17
12897;BME280;6516;35.028;32.372;2022-09-09T05:58:32;99822.66;;;31.52;47.71
12897;BME280;6516;35.028;32.372;2022-09-09T06:01:02;99820.97;;;31.67;46.58
12897;BME280;6516;35.028;32.372;2022-09-09T06:03:31;99825.78;;;31.89;46.24
12897;BME280;6516;35.028;32.372;2022-09-09T06:06:00;99818.28;;;31.99;45.13
12897;BME280;6516;35.028;32.372;2022-09-09T06:08:30;99820.00;;;32.16;43.03
12897;BME280;6516;35.028;32.372;2022-09-09T06:11:03;99822.22;;;32.28;43.22
12897;BME280;6516;35.028;32.372;2022-09-09T06:13:32;99817.94;;;32.42;43.45
12897;BME280;6516;35.028;32.372;2022-09-09T06:16:01;99812.94;;;32.61;44.09
12897;BME280;6516;35.028;32.372;2022-09-09T06:18:30;99819.91;;;32.64;42.74
12897;BME280;6516;35.028;32.372;2022-09-09T06:20:59;99820.75;;;32.72;45.54
12897;BME280;6516;35.028;32.372;2022-09-09T06:23:30;99812.25;;;32.67;46.94
12897;BME280;6516;35.028;32.372;2022-09-09T06:26:07;99816.66;;;32.76;43.67
12897;BME280;6516;35.028;32.372;2022-09-09T06:28:37;99822.09;;;32.76;42.56
12897;BME280;6516;35.028;32.372;2022-09-09T06:31:06;99819.66;;;32.97;43.71
12897;BME280;6516;35.028;32.372;2022-09-09T06:33:37;99829.16;;;33.09;37.77
12897;BME280;6516;35.028;32.372;2022-09-09T06:36:07;99823.97;;;33.22;36.44
12897;BME280;6516;35.028;32.372;2022-09-09T06:38:38;99826.94;;;33.43;40.06
12897;BME280;6516;35.028;32.372;2022-09-09T06:41:08;99826.72;;;33.53;43.46
12897;BME280;6516;35.028;32.372;2022-09-09T06:43:37;99829.75;;;33.58;43.13
12897;BME280;6516;35.028;32.372;2022-09-09T06:46:06;99833.81;;;33.62;45.78
12897;BME280;6516;35.028;32.372;2022-09-09T06:48:35;99831.97;;;33.85;44.25
12897;BME280;6516;35.028;32.372;2022-09-09T06:51:05;99826.91;;;33.97;41.75
12897;BME280;6516;35.028;32.372;2022-09-09T06:53:35;99832.06;;;34.14;41.32
12897;BME280;6516;35.028;32.372;2022-09-09T06:56:19;99829.97;;;34.39;38.42
12897;BME280;6516;35.028;32.372;2022-09-09T06:58:49;99835.00;;;34.64;39.49
12897;BME280;6516;35.028;32.372;2022-09-09T07:01:21;99840.19;;;34.74;38.77
12897;BME280;6516;35.028;32.372;2022-09-09T07:03:51;99839.94;;;34.83;38.76
12897;BME280;6516;35.028;32.372;2022-09-09T07:06:22;99845.03;;;34.86;38.86
12897;BME280;6516;35.028;32.372;2022-09-09T07:08:52;99851.09;;;34.96;38.24
12897;BME280;6516;35.028;32.372;2022-09-09T07:11:24;99842.00;;;35.10;38.48
12897;BME280;6516;35.028;32.372;2022-09-09T07:13:52;99843.13;;;35.30;36.76
12897;BME280;6516;35.028;32.372;2022-09-09T07:16:22;99848.66;;;35.51;35.80
12897;BME280;6516;35.028;32.372;2022-09-09T07:18:50;99844.63;;;35.68;35.00
12897;BME280;6516;35.028;32.372;2022-09-09T07:21:19;99846.56;;;35.89;34.73
12897;BME280;6516;35.028;32.372;2022-09-09T07:23:47;99841.66;;;36.05;33.17
12897;BME280;6516;35.028;32.372;2022-09-09T07:26:18;99839.88;;;36.19;32.56
12897;BME280;6516;35.028;32.372;2022-09-09T07:28:49;99837.06;;;36.33;33.12
12897;BME280;6516;35.028;32.372;2022-09-09T07:31:18;99833.38;;;36.47;33.24
12897;BME280;6516;35.028;32.372;2022-09-09T07:33:47;99837.63;;;36.50;32.67
12897;BME280;6516;35.028;32.372;2022-09-09T07:36:16;99839.41;;;36.64;31.39
12897;BME280;6516;35.028;32.372;2022-09-09T07:38:49;99835.81;;;36.91;30.59
12897;BME280;6516;35.028;32.372;2022-09-09T07:41:19;99838.94;;;36.88;29.44
12897;BME280;6516;35.028;32.372;2022-09-09T07:43:50;99846.44;;;37.00;29.74
12897;BME280;6516;35.028;32.372;2022-09-09T07:46:20;99848.94;;;36.95;32.49
12897;BME280;6516;35.028;32.372;2022-09-09T07:48:50;99847.09;;;37.09;32.87
12897;BME280;6516;35.028;32.372;2022-09-09T07:51:21;99833.72;;;36.93;32.99
12897;BME280;6516;35.028;32.372;2022-09-09T07:53:52;99847.22;;;36.94;33.47
12897;BME280;6516;35.028;32.372;2022-09-09T07:56:23;99845.56;;;37.00;34.04
12897;BME280;6516;35.028;32.372;2022-09-09T07:58:54;99844.81;;;37.12;34.31
12897;BME280;6516;35.028;32.372;2022-09-09T08:01:26;99845.03;;;37.17;36.18
12897;BME280;6516;35.028;32.372;2022-09-09T08:03:58;99838.09;;;37.21;36.17
12897;BME280;6516;35.028;32.372;2022-09-09T08:06:27;99841.09;;;37.33;35.18
12897;BME280;6516;35.028;32.372;2022-09-09T08:08:55;99844.31;;;37.36;34.18
12897;BME280;6516;35.028;32.372;2022-09-09T08:11:24;99835.81;;;37.38;36.47
12897;BME280;6516;35.028;32.372;2022-09-09T08:13:55;99842.56;;;37.35;36.48
12897;BME280;6516;35.028;32.372;2022-09-09T08:16:25;99839.44;;;37.38;35.25
12897;BME280;6516;35.028;32.372;2022-09-09T08:18:55;99835.25;;;37.49;34.67
12897;BME280;6516;35.028;32.372;2022-09-09T08:21:25;99833.75;;;37.46;34.73
12897;BME280;6516;35.028;32.372;2022-09-09T08:23:55;99839.44;;;37.38;35.16
12897;BME280;6516;35.028;32.372;2022-09-09T08:26:25;99833.34;;;37.56;35.12
12897;BME280;6516;35.028;32.372;2022-09-09T08:28:56;99834.41;;;37.55;35.11
12897;BME280;6516;35.028;32.372;2022-09-09T08:31:26;99828.56;;;37.71;33.96
12897;BME280;6516;35.028;32.372;2022-09-09T08:33:56;99834.03;;;37.58;34.42
12897;BME280;6516;35.028;32.372;2022-09-09T08:36:26;99834.47;;;37.61;33.29
12897;BME280;6516;35.028;32.372;2022-09-09T08:38:56;99834.06;;;37.64;33.43
12897;BME280;6516;35.028;32.372;2022-09-09T08:42:04;99831.97;;;37.79;31.94
12897;BME280;6516;35.028;32.372;2022-09-09T08:44:52;99830.72;;;37.95;33.25
12897;BME280;6516;35.028;32.372;2022-09-09T08:47:45;99827.56;;;37.98;33.54
12897;BME280;6516;35.028;32.372;2022-09-09T08:50:22;99833.66;;;37.93;32.28
12897;BME280;6516;35.028;32.372;2022-09-09T08:52:59;99842.13;;;37.92;33.60
12897;BME280;6516;35.028;32.372;2022-09-09T08:55:37;99828.41;;;38.05;32.30
12897;BME280;6516;35.028;32.372;2022-09-09T08:58:13;99833.94;;;38.11;31.29
12897;BME280;6516;35.028;32.372;2022-09-09T09:00:58;99843.06;;;38.31;30.09
12897;BME280;6516;35.028;32.372;2022-09-09T09:03:37;99844.53;;;38.47;31.36
12897;BME280;6516;35.028;32.372;2022-09-09T09:06:18;99832.44;;;38.41;30.04
12897;BME280;6516;35.028;32.372;2022-09-09T09:08:59;99831.84;;;38.13;31.02
12897;BME280;6516;35.028;32.372;2022-09-09T09:11:35;99835.41;;;38.20;33.38
12897;BME280;6516;35.028;32.372;2022-09-09T09:14:08;99829.06;;;38.39;31.42
12897;BME280;6516;35.028;32.372;2022-09-09T09:16:43;99827.56;;;38.37;32.54
12897;BME280;6516;35.028;32.372;2022-09-09T09:19:16;99829.94;;;38.46;32.28
12897;BME280;6516;35.028;32.372;2022-09-09T09:21:51;99823.78;;;38.31;32.38
12897;BME280;6516;35.028;32.372;2022-09-09T09:24:25;99824.22;;;38.48;30.68
12897;BME280;6516;35.028;32.372;2022-09-09T09:26:59;99828.63;;;38.29;32.57
12897;BME280;6516;35.028;32.372;2022-09-09T09:29:28;99824.44;;;38.46;29.28
12897;BME280;6516;35.028;32.372;2022-09-09T09:32:01;99827.19;;;38.46;29.57
12897;BME280;6516;35.028;32.372;2022-09-09T09:34:29;99826.50;;;38.44;32.11
12897;BME280;6516;35.028;32.372;2022-09-09T09:36:59;99832.28;;;38.49;28.70
12897;BME280;6516;35.028;32.372;2022-09-09T09:39:30;99827.56;;;38.63;29.18
12897;BME280;6516;35.028;32.372;2022-09-09T09:42:09;99822.50;;;38.34;30.25
12897;BME280;6516;35.028;32.372;2022-09-09T09:44:40;99828.22;;;38.32;28.29
12897;BME280;6516;35.028;32.372;2022-09-09T09:47:12;99833.31;;;38.22;29.36
12897;BME280;6516;35.028;32.372;2022-09-09T09:49:51;99826.53;;;38.31;30.41
12897;BME280;6516;35.028;32.372;2022-09-09T09:52:22;99825.03;;;38.35;31.96
12897;BME280;6516;35.028;32.372;2022-09-09T09:54:51;99832.03;;;38.38;32.24
12897;BME280;6516;35.028;32.372;2022-09-09T09:57:24;99828.44;;;38.31;29.86
12897;BME280;6516;35.028;32.372;2022-09-09T10:00:03;99825.47;;;38.32;31.54
12897;BME280;6516;35.028;32.372;2022-09-09T10:02:40;99823.13;;;38.23;29.83
12897;BME280;6516;35.028;32.372;2022-09-09T10:05:14;99831.59;;;38.28;30.94
12897;BME280;6516;35.028;32.372;2022-09-09T10:07:44;99823.13;;;38.29;30.36
12897;BME280;6516;35.028;32.372;2022-09-09T10:10:15;99816.56;;;38.43;27.97
12897;BME280;6516;35.028;32.372;2022-09-09T10:12:56;99812.13;;;38.36;29.35
12897;BME280;6516;35.028;32.372;2022-09-09T10:15:35;99818.50;;;38.23;28.05
12897;BME280;6516;35.028;32.372;2022-09-09T10:18:19;99817.84;;;38.08;29.81
12897;BME280;6516;35.028;32.372;2022-09-09T10:20:59;99808.31;;;38.24;32.02
12897;BME280;6516;35.028;32.372;2022-09-09T10:23:46;99807.50;;;38.49;31.25
12897;BME280;6516;35.028;32.372;2022-09-09T10:26:31;99810.63;;;38.40;32.67
12897;BME280;6516;35.028;32.372;2022-09-09T10:32:13;99802.19;;;38.22;30.84
12897;BME280;6516;35.028;32.372;2022-09-09T10:35:09;99800.72;;;38.19;32.20
12897;BME280;6516;35.028;32.372;2022-09-09T10:37:49;99795.63;;;38.36;31.25
12897;BME280;6516;35.028;32.372;2022-09-09T10:40:41;99791.38;;;38.40;30.00
12897;BME280;6516;35.028;32.372;2022-09-09T10:43:24;99796.25;;;38.51;31.07
12897;BME280;6516;35.028;32.372;2022-09-09T10:46:04;99800.06;;;37.98;31.84
12897;BME280;6516;35.028;32.372;2022-09-09T10:48:45;99797.75;;;38.01;32.50
12897;BME280;6516;35.028;32.372;2022-09-09T10:51:29;99798.56;;;37.95;33.26
12897;BME280;6516;35.028;32.372;2022-09-09T10:54:13;99795.38;;;37.72;33.22
12897;BME280;6516;35.028;32.372;2022-09-09T10:56:54;99798.75;;;37.74;31.56
12897;BME280;6516;35.028;32.372;2022-09-09T10:59:27;99787.97;;;37.79;31.71
12897;BME280;6516;35.028;32.372;2022-09-09T11:02:01;99791.59;;;37.93;33.50
12897;BME280;6516;35.028;32.372;2022-09-09T11:04:38;99795.56;;;37.97;33.39
12897;BME280;6516;35.028;32.372;2022-09-09T11:07:12;99788.59;;;37.88;32.21
12897;BME280;6516;35.028;32.372;2022-09-09T11:09:47;99787.53;;;37.76;32.62
12897;BME280;6516;35.028;32.372;2022-09-09T11:12:19;99795.56;;;37.71;32.86
12897;BME280;6516;35.028;32.372;2022-09-09T11:14:50;99786.50;;;37.83;33.07
12897;BME280;6516;35.028;32.372;2022-09-09T11:17:24;99788.63;;;37.81;32.43
12897;BME280;6516;35.028;32.372;2022-09-09T11:19:54;99787.13;;;37.66;33.55
12897;BME280;6516;35.028;32.372;2022-09-09T11:22:28;99784.34;;;37.59;32.02
12897;BME280;6516;35.028;32.372;2022-09-09T11:25:01;99781.97;;;37.56;29.87
12897;BME280;6516;35.028;32.372;2022-09-09T11:27:37;99779.06;;;37.64;31.94
12897;BME280;6516;35.028;32.372;2022-09-09T11:30:18;99782.66;;;37.65;34.10
12897;BME280;6516;35.028;32.372;2022-09-09T11:36:23;99781.94;;;37.43;33.79
12897;BME280;6516;35.028;32.372;2022-09-09T11:39:27;99777.53;;;37.49;32.66
12897;BME280;6516;35.028;32.372;2022-09-09T11:42:13;99770.53;;;37.40;34.16
12897;BME280;6516;35.028;32.372;2022-09-09T11:44:44;99777.31;;;37.44;34.00
12897;BME280;6516;35.028;32.372;2022-09-09T11:47:23;99769.66;;;37.39;34.81
12897;BME280;6516;35.028;32.372;2022-09-09T11:49:52;99773.03;;;37.28;35.47
12897;BME280;6516;35.028;32.372;2022-09-09T11:52:34;99773.91;;;37.42;34.47
12897;BME280;6516;35.028;32.372;2022-09-09T11:55:10;99769.66;;;37.33;34.36
12897;BME280;6516;35.028;32.372;2022-09-09T11:57:47;99761.94;;;37.09;33.53
12897;BME280;6516;35.028;32.372;2022-09-09T12:00:32;99764.03;;;37.00;34.47
12897;BME280;6516;35.028;32.372;2022-09-09T12:03:03;99770.38;;;37.07;34.84
12897;BME280;6516;35.028;32.372;2022-09-09T12:05:39;99769.97;;;37.04;34.39
12897;BME280;6516;35.028;32.372;2022-09-09T12:08:09;99755.56;;;36.95;35.32
12897;BME280;6516;35.028;32.372;2022-09-09T12:10:54;99755.50;;;36.82;34.93
12897;BME280;6516;35.028;32.372;2022-09-09T12:13:24;99759.97;;;36.90;34.69
12897;BME280;6516;35.028;32.372;2022-09-09T12:15:54;99757.94;;;36.64;36.48
12897;BME280;6516;35.028;32.372;2022-09-09T12:18:23;99748.19;;;36.62;34.99
12897;BME280;6516;35.028;32.372;2022-09-09T12:20:58;99761.56;;;36.71;34.71
12897;BME280;6516;35.028;32.372;2022-09-09T12:23:37;99756.31;;;36.76;35.12
12897;BME280;6516;35.028;32.372;2022-09-09T12:26:30;99754.59;;;36.69;35.42
12897;BME280;6516;35.028;32.372;2022-09-09T12:29:06;99749.53;;;36.38;34.98
12897;BME280;6516;35.028;32.372;2022-09-09T12:31:46;99741.19;;;36.53;32.96
12897;BME280;6516;35.028;32.372;2022-09-09T12:34:28;99739.25;;;36.53;32.86
12897;BME280;6516;35.028;32.372;2022-09-09T12:37:05;99737.50;;;36.39;34.22
12897;BME280;6516;35.028;32.372;2022-09-09T12:39:39;99736.09;;;36.50;36.03
12897;BME280;6516;35.028;32.372;2022-09-09T12:42:18;99729.34;;;36.52;33.56
12897;BME280;6516;35.028;32.372;2022-09-09T12:44:54;99735.84;;;36.45;34.45
12897;BME280;6516;35.028;32.372;2022-09-09T12:47:35;99735.00;;;36.44;35.11
12897;BME280;6516;35.028;32.372;2022-09-09T12:50:16;99745.50;;;36.34;35.53
12897;BME280;6516;35.028;32.372;2022-09-09T12:52:48;99738.16;;;36.41;34.65
12897;BME280;6516;35.028;32.372;2022-09-09T12:55:19;99739.53;;;36.24;36.53
12897;BME280;6516;35.028;32.372;2022-09-09T12:57:52;99740.44;;;36.10;36.22
12897;BME280;6516;35.028;32.372;2022-09-09T13:00:21;99737.84;;;36.02;35.61
12897;BME280;6516;35.028;32.372;2022-09-09T13:02:52;99728.56;;;35.76;34.31
12897;BME280;6516;35.028;32.372;2022-09-09T13:05:23;99734.59;;;35.71;36.49
12897;BME280;6516;35.028;32.372;2022-09-09T13:07:59;99739.19;;;35.64;36.88
12897;BME280;6516;35.028;32.372;2022-09-09T13:10:30;99731.47;;;35.53;38.33
12897;BME280;6516;35.028;32.372;2022-09-09T13:13:01;99728.94;;;35.52;38.19
12897;BME280;6516;35.028;32.372;2022-09-09T13:15:31;99730.97;;;35.43;38.38
12897;BME280;6516;35.028;32.372;2022-09-09T13:18:06;99731.69;;;35.31;38.30
12897;BME280;6516;35.028;32.372;2022-09-09T13:20:38;99728.66;;;35.26;36.63
12897;BME280;6516;35.028;32.372;2022-09-09T13:23:11;99736.47;;;35.08;37.77
12897;BME280;6516;35.028;32.372;2022-09-09T13:25:40;99735.72;;;34.99;38.49
12897;BME280;6516;35.028;32.372;2022-09-09T13:28:21;99731.31;;;34.84;37.98
12897;BME280;6516;35.028;32.372;2022-09-09T13:30:59;99734.63;;;34.79;37.80
12897;BME280;6516;35.028;32.372;2022-09-09T13:33:35;99739.53;;;34.69;39.20
12897;BME280;6516;35.028;32.372;2022-09-09T13:36:05;99738.13;;;34.59;41.63
12897;BME280;6516;35.028;32.372;2022-09-09T13:38:36;99740.19;;;34.42;43.22
12897;BME280;6516;35.028;32.372;2022-09-09T13:41:06;99732.72;;;34.36;42.33